Terminal Aerodrome Forecast
Issued by NWS Louisville, KY

Home | Current Version | Previous Version | Text Only | Print | Product List | Glossary On
Versions: 1 2 3 4 5 6 7 8 9 10 11 12 13 14 15 16 17 18
084
FTUS43 KLMK 051314 AAA
TAFLEX
TAF AMD
KLEX 051314Z 0513/0612 VRB04KT P6SM OVC018
      TEMPO 0513/0516 SCT018 BKN250
     FM051900 09008KT P6SM OVC200
     FM060600 08009KT P6SM -SHRA BKN050
     FM060900 07008KT 2SM -RA BR OVC006=

USA.gov is the U.S. government's official web portal to all federal, state and local government web resources and services.